Pagrindinis puslapis
METAR-TAF:

METAR-TAF

Oro uostai :

Tabukas, Saudo Arabija

platuma: 28-22N, ilguma: 036-36E, Aukštis: 778 m

Dabartinis oras

Ataskaita buvo paskelbta 47 minutes, ne 12:00 UTC
Vėjas 4 kt iš Pietų/Pietryčių
Temperatūra 30°C
Drėgmė 12%
Slėgis 1009 hPa
Matomumas: 7000 m

METAR: OETB 201200Z 15004KT 7000 NSC 30/M02 Q1009 NOSIG

Laikas: 15:47 (12:47 UTC)

Prognozė

Ataskaita buvo paskelbta 1 valandą ir 47 minutes, ne 11:00 UTC
Prognozė galioja nuo 20 metu 12 UTC su 21 metu 18 UTC
Vėjas 10 kt iš Vakarų
Matomumas: 7000 m
Tapsmas
nuo 20 metu 18 UTC su 20 metu 20 UTC
Vėjas 10 kt iš Šiaurės/Šiaurės Vakarų
Matomumas 10 km arba daugiau
nėra debesų žemiau 1500 m ir nėra kamuolinių lietaus debesų

TAF: OETB 201100Z 2012/2118 28010KT 7000 NSC BECMG 2018/2020 34010KT CAVOK

Orai ataskaitas ir orų prognozės (METAR, TAF).

turimą stotys yra geltonos ir raudonos taškus žemėlapyje.

Perkelti pele per norėdami pamatyti stoties vardą.

Tada spustelėkite, norėdami matyti oro stebėjimo ir prognozės.

Norėdami pakeisti žemėlapį: spustelėkite ant žalios mygtukų su juodo kryžiaus žemyn,; žalią mygtuką su brūkšneliu, jei norite nutolinti; arba žalių rodyklių gretimoms žemėlapius.


METAR-TAF: